createdAt,value
2018-11-14T00:00:25.352Z,14.53
2018-11-14T00:02:52.894Z,10.57
2018-11-14T00:05:20.419Z,13.43
2018-11-14T00:07:47.930Z,13.10
2018-11-14T00:10:15.588Z,12.27
2018-11-14T00:12:43.876Z,13.47
2018-11-14T00:15:13.523Z,11.43
2018-11-14T00:17:42.111Z,11.97
2018-11-14T00:20:10.475Z,10.57
2018-11-14T00:22:38.102Z,13.93
2018-11-14T00:25:05.834Z,10.33
2018-11-14T00:27:33.373Z,12.20
2018-11-14T00:30:00.895Z,10.77
2018-11-14T00:32:28.548Z,14.20
2018-11-14T00:34:56.570Z,11.13
2018-11-14T00:37:23.749Z,10.60
2018-11-14T00:39:51.274Z,11.70
2018-11-14T00:42:18.801Z,13.97
2018-11-14T00:44:46.348Z,10.47
2018-11-14T00:47:13.891Z,8.53
2018-11-14T00:49:41.549Z,9.80
2018-11-14T00:52:09.192Z,12.90
2018-11-14T00:54:36.715Z,12.20
2018-11-14T00:57:04.391Z,17.53
2018-11-14T00:59:31.896Z,10.53
2018-11-14T01:01:59.497Z,11.10
2018-11-14T01:04:27.030Z,12.13
2018-11-14T01:06:54.563Z,11.53
2018-11-14T01:09:22.119Z,11.07
2018-11-14T01:11:49.679Z,12.07
2018-11-14T01:14:17.267Z,12.87
2018-11-14T01:16:44.838Z,11.20
2018-11-14T01:19:12.367Z,9.67
2018-11-14T01:21:39.893Z,11.90
2018-11-14T01:24:07.869Z,9.37
2018-11-14T01:26:35.441Z,8.37
2018-11-14T01:29:03.062Z,15.47
2018-11-14T01:31:30.749Z,12.33
2018-11-14T01:33:58.300Z,10.67
2018-11-14T01:36:25.791Z,12.70
2018-11-14T01:38:53.311Z,9.97
2018-11-14T01:41:20.913Z,15.43
2018-11-14T01:43:48.544Z,11.53
2018-11-14T01:46:16.091Z,9.23
2018-11-14T01:48:43.605Z,9.23
2018-11-14T01:51:11.159Z,6.03
2018-11-14T01:53:38.756Z,10.03
2018-11-14T01:56:06.395Z,11.17
2018-11-14T01:58:33.915Z,9.50
2018-11-14T02:01:01.445Z,8.40
2018-11-14T02:03:28.979Z,10.97
2018-11-14T02:05:56.537Z,12.90
2018-11-14T02:08:24.164Z,9.23
2018-11-14T02:10:51.752Z,9.23
2018-11-14T02:13:19.338Z,11.87
2018-11-14T02:15:46.893Z,12.37
2018-11-14T02:18:14.441Z,12.03
2018-11-14T02:20:41.996Z,11.03
2018-11-14T02:23:10.583Z,13.57
2018-11-14T02:25:38.196Z,10.43
2018-11-14T02:28:05.901Z,10.90
2018-11-14T02:30:33.404Z,9.57
2018-11-14T02:33:00.956Z,12.77
2018-11-14T02:35:28.565Z,11.57
2018-11-14T02:37:56.109Z,9.53
2018-11-14T02:40:23.742Z,11.43
2018-11-14T02:42:51.298Z,6.57
2018-11-14T02:45:18.848Z,9.93
2018-11-14T02:47:46.403Z,15.00
2018-11-14T02:50:15.306Z,12.33
2018-11-14T02:52:42.811Z,8.13
2018-11-14T02:55:12.104Z,12.97
2018-11-14T02:57:39.856Z,10.63
2018-11-14T03:00:09.028Z,12.33
2018-11-14T03:02:36.545Z,9.17
2018-11-14T03:05:04.568Z,12.80
2018-11-14T03:07:32.089Z,11.63
2018-11-14T03:09:59.961Z,9.57
2018-11-14T03:12:27.547Z,12.80
2018-11-14T03:14:55.251Z,8.07
2018-11-14T03:17:22.778Z,8.47
2018-11-14T03:19:50.281Z,12.93
2018-11-14T03:22:17.791Z,14.33
2018-11-14T03:24:45.334Z,13.03
2018-11-14T03:27:12.935Z,10.30
2018-11-14T03:29:40.600Z,7.73
2018-11-14T03:32:08.209Z,8.87
2018-11-14T03:34:36.043Z,10.03
2018-11-14T03:37:03.633Z,10.53
2018-11-14T03:39:31.201Z,10.70
2018-11-14T03:41:58.727Z,9.67
2018-11-14T03:44:26.324Z,10.37
2018-11-14T03:46:53.832Z,10.73
2018-11-14T03:49:21.716Z,11.53
2018-11-14T03:51:49.233Z,16.80
2018-11-14T03:54:16.856Z,11.40
2018-11-14T03:56:44.438Z,11.67
2018-11-14T03:59:12.111Z,14.77
2018-11-14T04:01:39.680Z,9.80
2018-11-14T04:04:07.212Z,10.27
2018-11-14T04:06:34.788Z,12.17
2018-11-14T04:09:02.799Z,13.70
2018-11-14T04:11:30.347Z,10.23
2018-11-14T04:13:57.867Z,16.57
2018-11-14T04:16:25.433Z,11.23
2018-11-14T04:18:53.012Z,11.53
2018-11-14T04:21:20.608Z,12.50
2018-11-14T04:23:49.786Z,14.50
2018-11-14T04:26:17.450Z,10.60
2018-11-14T04:28:45.388Z,11.17
2018-11-14T04:31:12.977Z,13.57
2018-11-14T04:33:40.479Z,14.60
2018-11-14T04:36:08.008Z,14.73
2018-11-14T04:38:35.563Z,13.63
2018-11-14T04:41:03.168Z,11.53
2018-11-14T04:43:30.693Z,13.23
2018-11-14T04:45:58.224Z,12.30
2018-11-14T04:48:25.763Z,10.67
2018-11-14T04:50:53.279Z,11.40
2018-11-14T04:53:20.815Z,14.77
2018-11-14T04:55:48.509Z,12.37
2018-11-14T04:58:16.093Z,13.77
2018-11-14T05:00:43.620Z,10.53
2018-11-14T05:03:11.115Z,9.53
2018-11-14T05:05:38.711Z,10.30
2018-11-14T05:08:06.316Z,9.80
2018-11-14T05:10:33.936Z,10.57
2018-11-14T05:13:01.509Z,11.80
2018-11-14T05:15:29.313Z,9.83
2018-11-14T05:17:56.866Z,13.03
2018-11-14T05:20:24.435Z,12.57
2018-11-14T05:22:52.338Z,12.23
2018-11-14T05:25:19.945Z,12.63
2018-11-14T05:27:47.475Z,13.10
2018-11-14T05:30:16.231Z,11.73
2018-11-14T05:32:44.727Z,11.97
2018-11-14T05:35:12.824Z,11.13
2018-11-14T05:37:40.434Z,11.93
2018-11-14T05:40:10.220Z,11.07
2018-11-14T05:42:38.359Z,12.03
2018-11-14T05:45:10.336Z,11.30
2018-11-14T05:47:38.360Z,13.77
2018-11-14T05:50:09.663Z,12.73
2018-11-14T05:52:37.259Z,11.97
2018-11-14T05:55:05.218Z,10.60
2018-11-14T05:57:32.716Z,13.33
2018-11-14T06:00:00.336Z,19.67
2018-11-14T06:02:27.880Z,13.17
2018-11-14T06:04:55.503Z,10.47
2018-11-14T06:07:23.161Z,11.37
2018-11-14T06:09:50.589Z,14.33
2018-11-14T06:12:18.125Z,9.40
2018-11-14T06:14:45.648Z,10.57
2018-11-14T06:17:13.304Z,10.57
2018-11-14T06:19:40.946Z,9.87
2018-11-14T06:22:08.585Z,9.07
2018-11-14T06:24:36.087Z,15.50
2018-11-14T06:27:03.592Z,12.47
2018-11-14T06:29:31.132Z,12.43
2018-11-14T06:31:58.728Z,12.13
2018-11-14T06:34:26.333Z,10.00
2018-11-14T06:36:53.925Z,14.00
2018-11-14T06:39:21.910Z,13.93
2018-11-14T06:41:54.904Z,14.23
2018-11-14T06:44:22.546Z,16.70
2018-11-14T06:46:50.135Z,12.20
2018-11-14T06:49:17.664Z,14.87
2018-11-14T06:51:45.187Z,17.17
2018-11-14T06:54:12.745Z,12.07
2018-11-14T06:56:40.244Z,13.80
2018-11-14T06:59:07.849Z,16.67
2018-11-14T07:01:35.423Z,13.87
2018-11-14T07:04:03.005Z,11.90
2018-11-14T07:06:30.530Z,11.80
2018-11-14T07:08:58.088Z,12.90
2018-11-14T07:11:25.600Z,14.70
2018-11-14T07:13:53.100Z,17.97
2018-11-14T07:16:20.706Z,13.70
2018-11-14T07:18:48.242Z,16.50
2018-11-14T07:21:15.757Z,15.43
2018-11-14T07:23:43.281Z,17.53
2018-11-14T07:26:10.844Z,17.70
2018-11-14T07:28:38.386Z,16.33
2018-11-14T07:31:05.980Z,16.93
2018-11-14T07:33:33.512Z,16.63
2018-11-14T07:36:01.034Z,18.07
2018-11-14T07:38:34.715Z,17.57
2018-11-14T07:41:03.153Z,12.93
2018-11-14T07:43:31.191Z,13.67
2018-11-14T07:45:58.737Z,14.87
2018-11-14T07:48:26.389Z,13.10
2018-11-14T07:50:53.987Z,17.10
2018-11-14T07:53:21.581Z,11.93
2018-11-14T07:55:49.071Z,14.60
2018-11-14T07:58:16.626Z,13.50
2018-11-14T08:00:44.212Z,15.57
2018-11-14T08:03:12.102Z,14.67
2018-11-14T08:05:39.610Z,12.90
2018-11-14T08:08:07.190Z,17.53
2018-11-14T08:10:34.717Z,14.83
2018-11-14T08:13:02.332Z,13.17
2018-11-14T08:15:29.899Z,12.87
2018-11-14T08:17:57.505Z,14.33
2018-11-14T08:20:25.034Z,14.43
2018-11-14T08:22:53.106Z,12.67
2018-11-14T08:25:20.648Z,13.43
2018-11-14T08:27:48.195Z,15.63
2018-11-14T08:30:15.988Z,16.03
2018-11-14T08:32:43.625Z,16.57
2018-11-14T08:35:11.134Z,19.17
2018-11-14T08:37:39.400Z,14.87
2018-11-14T08:40:08.280Z,13.03
2018-11-14T08:42:36.331Z,13.90
2018-11-14T08:45:05.132Z,17.33
2018-11-14T08:47:32.668Z,16.17
2018-11-14T08:50:00.216Z,17.00
2018-11-14T08:52:27.847Z,16.60
2018-11-14T08:54:55.500Z,15.07
2018-11-14T08:57:23.230Z,14.13
2018-11-14T08:59:50.766Z,12.70
2018-11-14T09:02:18.304Z,12.50
2018-11-14T09:04:45.828Z,19.43
2018-11-14T09:07:13.476Z,17.57
2018-11-14T09:09:41.103Z,15.13
2018-11-14T09:12:09.101Z,13.80
2018-11-14T09:14:37.071Z,18.97
2018-11-14T09:17:05.187Z,15.67
2018-11-14T09:19:32.727Z,16.57
2018-11-14T09:22:00.945Z,17.40
2018-11-14T09:24:29.330Z,17.50
2018-11-14T09:26:57.499Z,15.30
2018-11-14T09:29:25.532Z,19.60
2018-11-14T09:31:53.108Z,15.80
2018-11-14T09:34:21.183Z,18.17
2018-11-14T09:36:48.723Z,16.53
2018-11-14T09:39:16.258Z,14.83
2018-11-14T09:41:43.868Z,15.77
2018-11-14T09:44:11.467Z,14.57
2018-11-14T09:46:39.093Z,13.90
2018-11-14T09:49:06.688Z,15.80
2018-11-14T09:51:34.664Z,14.63
2018-11-14T09:54:02.350Z,18.50
2018-11-14T09:56:29.955Z,15.20
2018-11-14T09:58:57.512Z,15.03
2018-11-14T10:01:25.199Z,13.17
2018-11-14T10:03:52.746Z,12.57
2018-11-14T10:06:20.287Z,14.33
2018-11-14T10:08:47.848Z,16.73
2018-11-14T10:11:15.453Z,16.10
2018-11-14T10:13:43.176Z,14.33
2018-11-14T10:16:10.758Z,11.27
2018-11-14T10:18:38.296Z,15.27
2018-11-14T10:21:05.915Z,13.90
2018-11-14T10:23:33.468Z,13.97
2018-11-14T10:26:01.092Z,11.80
2018-11-14T10:28:28.638Z,13.87
2018-11-14T10:30:56.196Z,12.97
2018-11-14T10:33:23.746Z,13.90
2018-11-14T10:35:51.396Z,12.03
2018-11-14T10:38:19.072Z,12.80
2018-11-14T10:40:46.974Z,14.87
2018-11-14T10:43:14.490Z,12.80
2018-11-14T10:45:42.047Z,12.33
2018-11-14T10:48:09.681Z,12.47
2018-11-14T10:50:37.259Z,11.77
2018-11-14T10:53:05.034Z,11.07
2018-11-14T10:55:32.617Z,10.17
2018-11-14T10:58:00.149Z,11.07
2018-11-14T11:00:33.318Z,14.73
2018-11-14T11:03:07.036Z,12.63
2018-11-14T11:05:40.439Z,10.77
2018-11-14T11:08:13.611Z,12.10
2018-11-14T11:10:46.743Z,10.57
2018-11-14T11:13:21.182Z,10.47
2018-11-14T11:15:54.431Z,10.67
2018-11-14T11:18:25.361Z,10.70
2018-11-14T11:20:53.167Z,11.53
2018-11-14T11:23:20.832Z,11.33
2018-11-14T11:25:48.544Z,13.80
2018-11-14T11:28:16.064Z,12.63
2018-11-14T11:30:43.638Z,16.37
2018-11-14T11:33:11.339Z,11.80
2018-11-14T11:35:38.955Z,12.20
2018-11-14T11:38:06.629Z,10.57
2018-11-14T11:40:34.631Z,12.00
2018-11-14T11:43:03.434Z,10.47
2018-11-14T11:45:31.269Z,10.27
2018-11-14T11:47:58.844Z,8.57
2018-11-14T11:50:26.494Z,8.87
2018-11-14T11:52:54.251Z,10.10
2018-11-14T11:55:21.854Z,10.77
2018-11-14T11:57:49.419Z,12.57
2018-11-14T12:00:17.070Z,10.87
2018-11-14T12:02:44.509Z,9.00
2018-11-14T12:05:13.344Z,12.33
2018-11-14T12:07:41.584Z,11.03
2018-11-14T12:10:10.529Z,10.30
2018-11-14T12:12:38.129Z,13.00
2018-11-14T12:15:07.241Z,12.43
2018-11-14T12:17:34.856Z,10.63
2018-11-14T12:20:02.458Z,10.43
2018-11-14T12:22:30.049Z,10.03
2018-11-14T12:24:57.703Z,10.37
2018-11-14T12:27:25.310Z,11.20
2018-11-14T12:29:52.862Z,7.57
2018-11-14T12:32:20.346Z,11.00
2018-11-14T12:34:48.829Z,8.40
2018-11-14T12:37:16.432Z,9.97
2018-11-14T12:39:44.107Z,7.83
2018-11-14T12:42:11.624Z,7.60
2018-11-14T12:44:39.154Z,7.13
2018-11-14T12:47:06.686Z,10.60
2018-11-14T12:49:34.387Z,8.80
2018-11-14T12:52:02.021Z,9.03
2018-11-14T12:54:30.580Z,6.30
2018-11-14T12:56:58.480Z,8.53
2018-11-14T12:59:26.102Z,13.70
2018-11-14T13:01:53.640Z,8.13
2018-11-14T13:04:21.227Z,7.87
2018-11-14T13:06:48.919Z,11.00
2018-11-14T13:09:16.618Z,13.90
2018-11-14T13:11:44.157Z,7.37
2018-11-14T13:14:11.848Z,7.43
2018-11-14T13:16:39.461Z,7.97
2018-11-14T13:19:06.972Z,7.07
2018-11-14T13:21:34.515Z,8.73
2018-11-14T13:24:02.056Z,11.23
2018-11-14T13:26:29.672Z,9.40
2018-11-14T13:28:57.428Z,9.07
2018-11-14T13:31:24.895Z,9.13
2018-11-14T13:33:52.459Z,7.90
2018-11-14T13:36:20.000Z,7.17
2018-11-14T13:38:47.609Z,7.33
2018-11-14T13:41:15.283Z,9.63
2018-11-14T13:43:42.953Z,7.90
2018-11-14T13:46:10.491Z,8.57
2018-11-14T13:48:38.100Z,9.93
2018-11-14T13:51:06.607Z,9.57
2018-11-14T13:53:33.966Z,7.03
2018-11-14T13:56:01.585Z,10.50
2018-11-14T13:58:29.144Z,7.30
2018-11-14T14:00:56.726Z,6.00
2018-11-14T14:03:24.348Z,10.63
2018-11-14T14:05:51.909Z,8.40
2018-11-14T14:08:19.454Z,8.00
2018-11-14T14:10:46.969Z,5.43
2018-11-14T14:13:14.504Z,8.07
2018-11-14T14:15:42.166Z,8.20
2018-11-14T14:18:09.743Z,7.37
2018-11-14T14:20:37.322Z,8.83
2018-11-14T14:23:05.117Z,10.03
2018-11-14T14:25:32.769Z,8.30
2018-11-14T14:28:00.733Z,5.83
2018-11-14T14:30:28.453Z,8.57
2018-11-14T14:32:56.052Z,5.87
2018-11-14T14:35:23.625Z,7.43
2018-11-14T14:37:51.298Z,6.10
2018-11-14T14:40:20.044Z,8.37
2018-11-14T14:42:47.624Z,6.87
2018-11-14T14:45:17.503Z,9.73
2018-11-14T14:47:45.151Z,11.37
2018-11-14T14:50:14.973Z,7.57
2018-11-14T14:52:43.040Z,6.70
2018-11-14T14:55:13.154Z,6.93
2018-11-14T14:57:41.008Z,7.20
2018-11-14T15:00:13.985Z,7.13
2018-11-14T15:02:42.090Z,3.37
2018-11-14T15:05:10.785Z,5.63
2018-11-14T15:07:38.647Z,8.40
2018-11-14T15:10:08.039Z,5.67
2018-11-14T15:12:35.609Z,9.27
2018-11-14T15:15:03.331Z,5.63
2018-11-14T15:17:30.880Z,7.37
2018-11-14T15:19:59.085Z,5.77
2018-11-14T15:22:26.704Z,6.90
2018-11-14T15:24:54.752Z,4.93
2018-11-14T15:27:22.397Z,8.33
2018-11-14T15:29:49.991Z,7.10
2018-11-14T15:32:17.642Z,8.60
2018-11-14T15:34:45.185Z,6.43
2018-11-14T15:37:12.719Z,5.97
2018-11-14T15:39:40.279Z,6.67
2018-11-14T15:42:07.919Z,6.20
2018-11-14T15:44:35.517Z,7.23
2018-11-14T15:47:03.077Z,6.13
2018-11-14T15:49:30.624Z,7.13
2018-11-14T15:51:58.206Z,7.33
2018-11-14T15:54:25.859Z,8.37
2018-11-14T15:56:53.424Z,6.23
2018-11-14T15:59:20.943Z,6.13
2018-11-14T16:01:48.460Z,10.43
2018-11-14T16:04:16.152Z,5.93
2018-11-14T16:06:43.784Z,13.73
2018-11-14T16:09:12.559Z,7.00
2018-11-14T16:11:40.237Z,11.53
2018-11-14T16:14:07.792Z,7.77
2018-11-14T16:16:35.341Z,7.03
2018-11-14T16:19:02.931Z,7.43
2018-11-14T16:21:30.499Z,15.30
2018-11-14T16:23:58.048Z,9.90
2018-11-14T16:26:25.588Z,7.90
2018-11-14T16:28:53.115Z,7.53
2018-11-14T16:31:20.656Z,8.00
2018-11-14T16:33:48.348Z,9.93
2018-11-14T16:36:15.927Z,10.60
2018-11-14T16:38:43.462Z,13.70
2018-11-14T16:41:11.169Z,8.13
2018-11-14T16:43:38.822Z,7.33
2018-11-14T16:46:06.486Z,8.93
2018-11-14T16:48:34.079Z,8.33
2018-11-14T16:51:01.736Z,8.67
2018-11-14T16:53:29.372Z,6.07
2018-11-14T16:55:57.055Z,7.50
2018-11-14T16:58:24.615Z,10.57
2018-11-14T17:00:52.219Z,10.83
2018-11-14T17:03:20.624Z,9.97
2018-11-14T17:05:48.292Z,9.30
2018-11-14T17:08:15.880Z,9.27
2018-11-14T17:10:43.407Z,11.30
2018-11-14T17:13:10.953Z,11.60
2018-11-14T17:15:38.499Z,9.80
2018-11-14T17:18:06.166Z,10.57
2018-11-14T17:20:33.707Z,12.13
2018-11-14T17:23:01.372Z,8.90
2018-11-14T17:25:28.894Z,11.93
2018-11-14T17:27:56.464Z,6.83
2018-11-14T17:30:25.428Z,9.73
2018-11-14T17:32:53.367Z,10.93
2018-11-14T17:35:22.091Z,8.00
2018-11-14T17:37:51.738Z,12.60
2018-11-14T17:40:21.973Z,11.57
2018-11-14T17:42:50.693Z,10.43
2018-11-14T17:45:20.314Z,11.93
2018-11-14T17:47:48.551Z,10.80
2018-11-14T17:50:17.988Z,14.60
2018-11-14T17:52:46.244Z,11.17
2018-11-14T17:55:14.865Z,9.53
2018-11-14T17:57:42.645Z,13.60
2018-11-14T18:00:11.751Z,11.27
2018-11-14T18:02:40.383Z,10.30
2018-11-14T18:05:10.015Z,11.67
2018-11-14T18:07:37.645Z,13.03
2018-11-14T18:10:06.507Z,10.07
2018-11-14T18:12:34.117Z,12.07
2018-11-14T18:15:01.782Z,12.50
2018-11-14T18:17:29.339Z,9.67
2018-11-14T18:19:56.856Z,10.77
2018-11-14T18:22:24.451Z,10.50
2018-11-14T18:24:51.987Z,8.70
2018-11-14T18:27:19.687Z,13.50
2018-11-14T18:29:47.261Z,8.43
2018-11-14T18:32:14.820Z,8.73
2018-11-14T18:34:42.477Z,12.50
2018-11-14T18:37:10.124Z,9.17
2018-11-14T18:39:37.802Z,7.77
2018-11-14T18:42:05.260Z,8.07
2018-11-14T18:44:32.872Z,7.13
2018-11-14T18:47:00.419Z,11.33
2018-11-14T18:49:28.079Z,10.23
2018-11-14T18:51:55.723Z,7.80
2018-11-14T18:54:23.467Z,9.27
2018-11-14T18:56:51.078Z,7.43
2018-11-14T18:59:18.623Z,9.10
2018-11-14T19:01:46.183Z,6.43
2018-11-14T19:04:13.828Z,9.10
2018-11-14T19:06:41.381Z,7.20
2018-11-14T19:09:08.927Z,8.20
2018-11-14T19:11:36.997Z,7.90
2018-11-14T19:14:04.649Z,6.80
2018-11-14T19:16:32.229Z,11.07
2018-11-14T19:18:59.798Z,7.13
2018-11-14T19:21:27.323Z,11.43
2018-11-14T19:23:54.893Z,8.27
2018-11-14T19:26:22.498Z,10.43
2018-11-14T19:28:50.202Z,7.77
2018-11-14T19:31:17.810Z,9.43
2018-11-14T19:33:45.346Z,8.20
2018-11-14T19:36:12.880Z,8.73
2018-11-14T19:38:40.577Z,7.43
2018-11-14T19:41:08.306Z,8.60
2018-11-14T19:43:35.866Z,11.70
2018-11-14T19:46:03.435Z,9.93
2018-11-14T19:48:30.959Z,11.50
2018-11-14T19:50:58.663Z,15.00
2018-11-14T19:53:26.314Z,13.13
2018-11-14T19:55:53.894Z,12.83
2018-11-14T19:58:21.434Z,17.27
2018-11-14T20:00:49.007Z,12.57
2018-11-14T20:03:16.744Z,10.67
2018-11-14T20:05:44.309Z,10.37
2018-11-14T20:08:11.983Z,12.40
2018-11-14T20:10:39.589Z,11.17
2018-11-14T20:13:07.135Z,8.33
2018-11-14T20:15:35.745Z,10.83
2018-11-14T20:18:03.474Z,9.87
2018-11-14T20:20:32.441Z,11.53
2018-11-14T20:23:00.092Z,12.77
2018-11-14T20:25:27.746Z,12.83
2018-11-14T20:27:55.310Z,13.17
2018-11-14T20:30:25.030Z,14.87
2018-11-14T20:32:53.758Z,11.63
2018-11-14T20:35:22.106Z,14.57
2018-11-14T20:37:49.795Z,12.43
2018-11-14T20:40:18.669Z,16.70
2018-11-14T20:42:46.999Z,14.97
2018-11-14T20:45:18.218Z,11.10
2018-11-14T20:47:45.855Z,12.60
2018-11-14T20:50:15.652Z,13.80
2018-11-14T20:52:43.972Z,14.77
2018-11-14T20:55:11.891Z,17.37
2018-11-14T20:57:40.327Z,14.60
2018-11-14T21:00:11.831Z,13.60
2018-11-14T21:02:40.039Z,14.40
2018-11-14T21:05:09.118Z,12.53
2018-11-14T21:07:36.622Z,11.83
2018-11-14T21:10:04.668Z,12.93
2018-11-14T21:12:32.240Z,14.20
2018-11-14T21:14:59.788Z,13.23
2018-11-14T21:17:27.393Z,13.10
2018-11-14T21:19:54.928Z,16.13
2018-11-14T21:22:22.443Z,15.80
2018-11-14T21:24:50.062Z,12.73
2018-11-14T21:27:17.738Z,11.93
2018-11-14T21:29:45.366Z,12.23
2018-11-14T21:32:12.868Z,11.77
2018-11-14T21:34:40.407Z,10.97
2018-11-14T21:37:07.980Z,9.97
2018-11-14T21:39:35.535Z,12.50
2018-11-14T21:42:03.140Z,15.00
2018-11-14T21:44:30.959Z,16.17
2018-11-14T21:46:58.463Z,13.20
2018-11-14T21:49:29.156Z,13.67
2018-11-14T21:51:57.808Z,11.37
2018-11-14T21:54:25.772Z,12.57
2018-11-14T21:56:53.512Z,12.53
2018-11-14T21:59:21.199Z,11.53
2018-11-14T22:01:48.730Z,13.20
2018-11-14T22:04:16.316Z,14.17
2018-11-14T22:06:44.097Z,12.83
2018-11-14T22:09:12.623Z,14.37
2018-11-14T22:11:40.179Z,14.27
2018-11-14T22:14:07.824Z,13.90
2018-11-14T22:16:35.442Z,13.70
2018-11-14T22:19:03.795Z,10.80
2018-11-14T22:21:32.027Z,13.77
2018-11-14T22:23:59.563Z,11.30
2018-11-14T22:26:27.103Z,13.00
2018-11-14T22:28:54.763Z,13.63
2018-11-14T22:31:22.419Z,15.07
2018-11-14T22:33:49.948Z,11.53
2018-11-14T22:36:17.456Z,11.73
2018-11-14T22:38:45.041Z,11.47
2018-11-14T22:41:12.660Z,15.40
2018-11-14T22:43:40.164Z,14.37
2018-11-14T22:46:07.711Z,13.33
2018-11-14T22:48:35.252Z,13.70
2018-11-14T22:51:02.833Z,17.30
2018-11-14T22:53:30.507Z,11.97
2018-11-14T22:55:58.049Z,10.37
2018-11-14T22:58:25.670Z,12.57
2018-11-14T23:00:53.313Z,14.87
2018-11-14T23:03:20.869Z,14.53
2018-11-14T23:05:48.372Z,11.27
2018-11-14T23:08:15.952Z,14.50
2018-11-14T23:10:43.565Z,13.90
2018-11-14T23:13:11.148Z,11.83
2018-11-14T23:15:38.670Z,11.53
2018-11-14T23:18:06.188Z,11.70
2018-11-14T23:20:33.824Z,13.43
2018-11-14T23:23:01.443Z,12.83
2018-11-14T23:25:28.996Z,13.70
2018-11-14T23:27:56.541Z,16.53
2018-11-14T23:30:25.320Z,15.33
2018-11-14T23:32:53.678Z,15.47
2018-11-14T23:35:23.444Z,19.17
2018-11-14T23:37:54.137Z,16.10
2018-11-14T23:40:21.731Z,16.93
2018-11-14T23:42:49.975Z,12.33
2018-11-14T23:45:18.491Z,14.50
2018-11-14T23:47:46.662Z,13.67
2018-11-14T23:50:17.688Z,11.77
2018-11-14T23:52:46.270Z,15.20
2018-11-14T23:55:14.544Z,17.03
2018-11-14T23:57:42.071Z,13.63
